sensor_id;sensor_type;location;lat;lon;timestamp;P1;durP1;ratioP1;P2;durP2;ratioP2
61911;SDS011;49973;52.084;5.412;2023-03-03T00:01:07;27.43;;;13.73;;
61911;SDS011;49973;52.084;5.412;2023-03-03T00:03:36;26.00;;;12.90;;
61911;SDS011;49973;52.084;5.412;2023-03-03T00:06:05;25.00;;;12.90;;
61911;SDS011;49973;52.084;5.412;2023-03-03T00:08:37;25.30;;;13.73;;
61911;SDS011;49973;52.084;5.412;2023-03-03T00:11:06;30.77;;;13.13;;
61911;SDS011;49973;52.084;5.412;2023-03-03T00:13:39;29.50;;;14.00;;
61911;SDS011;49973;52.084;5.412;2023-03-03T00:16:12;29.80;;;12.90;;
61911;SDS011;49973;52.084;5.412;2023-03-03T00:18:44;30.10;;;13.43;;
61911;SDS011;49973;52.084;5.412;2023-03-03T00:21:18;29.07;;;13.50;;
61911;SDS011;49973;52.084;5.412;2023-03-03T00:23:58;30.00;;;14.60;;
61911;SDS011;49973;52.084;5.412;2023-03-03T00:26:43;28.47;;;14.13;;
61911;SDS011;49973;52.084;5.412;2023-03-03T00:29:30;35.20;;;13.80;;
61911;SDS011;49973;52.084;5.412;2023-03-03T00:32:16;26.50;;;13.97;;
61911;SDS011;49973;52.084;5.412;2023-03-03T00:34:50;28.37;;;12.90;;
61911;SDS011;49973;52.084;5.412;2023-03-03T00:37:22;32.40;;;13.93;;
61911;SDS011;49973;52.084;5.412;2023-03-03T00:40:18;30.23;;;13.57;;
61911;SDS011;49973;52.084;5.412;2023-03-03T00:42:50;28.83;;;14.03;;
61911;SDS011;49973;52.084;5.412;2023-03-03T00:45:27;23.40;;;13.67;;
61911;SDS011;49973;52.084;5.412;2023-03-03T00:47:57;25.67;;;13.80;;
61911;SDS011;49973;52.084;5.412;2023-03-03T00:50:29;32.43;;;13.80;;
61911;SDS011;49973;52.084;5.412;2023-03-03T00:53:04;26.13;;;12.50;;
61911;SDS011;49973;52.084;5.412;2023-03-03T00:55:34;27.30;;;13.03;;
61911;SDS011;49973;52.084;5.412;2023-03-03T00:58:02;35.27;;;13.17;;
61911;SDS011;49973;52.084;5.412;2023-03-03T01:00:37;23.20;;;12.70;;
61911;SDS011;49973;52.084;5.412;2023-03-03T01:03:11;25.80;;;13.07;;
61911;SDS011;49973;52.084;5.412;2023-03-03T01:05:42;26.63;;;12.70;;
61911;SDS011;49973;52.084;5.412;2023-03-03T01:08:11;25.40;;;12.80;;
61911;SDS011;49973;52.084;5.412;2023-03-03T01:10:41;32.00;;;13.67;;
61911;SDS011;49973;52.084;5.412;2023-03-03T01:13:12;27.13;;;13.53;;
61911;SDS011;49973;52.084;5.412;2023-03-03T01:15:42;25.10;;;12.13;;
61911;SDS011;49973;52.084;5.412;2023-03-03T01:18:12;26.37;;;13.07;;
61911;SDS011;49973;52.084;5.412;2023-03-03T01:20:41;26.27;;;13.37;;
61911;SDS011;49973;52.084;5.412;2023-03-03T01:23:10;31.03;;;12.57;;
61911;SDS011;49973;52.084;5.412;2023-03-03T01:25:39;30.20;;;13.40;;
61911;SDS011;49973;52.084;5.412;2023-03-03T01:28:08;24.90;;;12.80;;
61911;SDS011;49973;52.084;5.412;2023-03-03T01:30:37;27.93;;;13.73;;
61911;SDS011;49973;52.084;5.412;2023-03-03T01:33:06;32.07;;;12.67;;
61911;SDS011;49973;52.084;5.412;2023-03-03T01:35:35;27.07;;;13.43;;
61911;SDS011;49973;52.084;5.412;2023-03-03T01:38:06;28.17;;;12.57;;
61911;SDS011;49973;52.084;5.412;2023-03-03T01:40:35;28.07;;;12.13;;
61911;SDS011;49973;52.084;5.412;2023-03-03T01:43:04;29.63;;;13.40;;
61911;SDS011;49973;52.084;5.412;2023-03-03T01:45:39;30.83;;;11.03;;
61911;SDS011;49973;52.084;5.412;2023-03-03T01:48:33;28.40;;;12.50;;
61911;SDS011;49973;52.084;5.412;2023-03-03T01:51:08;27.90;;;12.33;;
61911;SDS011;49973;52.084;5.412;2023-03-03T01:53:43;23.33;;;10.47;;
61911;SDS011;49973;52.084;5.412;2023-03-03T01:56:14;30.13;;;13.03;;
61911;SDS011;49973;52.084;5.412;2023-03-03T01:58:44;29.53;;;12.87;;
61911;SDS011;49973;52.084;5.412;2023-03-03T02:01:16;22.47;;;12.13;;
61911;SDS011;49973;52.084;5.412;2023-03-03T02:03:50;26.13;;;12.40;;
61911;SDS011;49973;52.084;5.412;2023-03-03T02:06:21;23.67;;;11.20;;
61911;SDS011;49973;52.084;5.412;2023-03-03T02:08:53;21.90;;;11.03;;
61911;SDS011;49973;52.084;5.412;2023-03-03T02:11:25;22.70;;;12.37;;
61911;SDS011;49973;52.084;5.412;2023-03-03T02:13:55;27.73;;;13.37;;
61911;SDS011;49973;52.084;5.412;2023-03-03T02:16:23;29.57;;;12.73;;
61911;SDS011;49973;52.084;5.412;2023-03-03T02:18:54;21.63;;;12.47;;
61911;SDS011;49973;52.084;5.412;2023-03-03T02:21:23;32.97;;;13.07;;
61911;SDS011;49973;52.084;5.412;2023-03-03T02:23:55;34.17;;;14.20;;
61911;SDS011;49973;52.084;5.412;2023-03-03T02:26:33;30.23;;;12.37;;
61911;SDS011;49973;52.084;5.412;2023-03-03T02:29:07;26.60;;;11.47;;
61911;SDS011;49973;52.084;5.412;2023-03-03T02:31:38;28.30;;;12.57;;
61911;SDS011;49973;52.084;5.412;2023-03-03T02:34:07;23.87;;;12.20;;
61911;SDS011;49973;52.084;5.412;2023-03-03T02:36:36;35.27;;;13.60;;
61911;SDS011;49973;52.084;5.412;2023-03-03T02:39:08;25.07;;;12.53;;
61911;SDS011;49973;52.084;5.412;2023-03-03T02:41:41;27.67;;;11.97;;
61911;SDS011;49973;52.084;5.412;2023-03-03T02:44:14;23.80;;;9.93;;
61911;SDS011;49973;52.084;5.412;2023-03-03T02:46:45;23.20;;;10.60;;
61911;SDS011;49973;52.084;5.412;2023-03-03T02:49:16;25.53;;;10.80;;
61911;SDS011;49973;52.084;5.412;2023-03-03T02:51:46;27.70;;;9.87;;
61911;SDS011;49973;52.084;5.412;2023-03-03T02:54:16;22.50;;;10.80;;
61911;SDS011;49973;52.084;5.412;2023-03-03T02:56:49;22.27;;;10.00;;
61911;SDS011;49973;52.084;5.412;2023-03-03T02:59:19;25.07;;;10.67;;
61911;SDS011;49973;52.084;5.412;2023-03-03T03:01:50;24.37;;;11.60;;
61911;SDS011;49973;52.084;5.412;2023-03-03T03:04:21;27.10;;;11.47;;
61911;SDS011;49973;52.084;5.412;2023-03-03T03:06:52;27.57;;;11.63;;
61911;SDS011;49973;52.084;5.412;2023-03-03T03:09:23;19.03;;;9.60;;
61911;SDS011;49973;52.084;5.412;2023-03-03T03:11:55;20.80;;;10.30;;
61911;SDS011;49973;52.084;5.412;2023-03-03T03:14:25;24.83;;;11.73;;
61911;SDS011;49973;52.084;5.412;2023-03-03T03:16:55;19.30;;;9.47;;
61911;SDS011;49973;52.084;5.412;2023-03-03T03:19:23;29.50;;;11.73;;
61911;SDS011;49973;52.084;5.412;2023-03-03T03:21:52;26.70;;;11.30;;
61911;SDS011;49973;52.084;5.412;2023-03-03T03:24:20;24.20;;;10.80;;
61911;SDS011;49973;52.084;5.412;2023-03-03T03:26:58;28.37;;;10.93;;
61911;SDS011;49973;52.084;5.412;2023-03-03T03:29:27;25.17;;;10.37;;
61911;SDS011;49973;52.084;5.412;2023-03-03T03:31:56;22.67;;;10.63;;
61911;SDS011;49973;52.084;5.412;2023-03-03T03:34:25;22.63;;;11.00;;
61911;SDS011;49973;52.084;5.412;2023-03-03T03:36:54;24.60;;;9.93;;
61911;SDS011;49973;52.084;5.412;2023-03-03T03:39:25;21.37;;;9.93;;
61911;SDS011;49973;52.084;5.412;2023-03-03T03:41:55;22.10;;;10.60;;
61911;SDS011;49973;52.084;5.412;2023-03-03T03:44:25;25.77;;;10.73;;
61911;SDS011;49973;52.084;5.412;2023-03-03T03:46:54;23.83;;;11.73;;
61911;SDS011;49973;52.084;5.412;2023-03-03T03:49:23;28.80;;;12.50;;
61911;SDS011;49973;52.084;5.412;2023-03-03T03:51:54;26.20;;;10.97;;
61911;SDS011;49973;52.084;5.412;2023-03-03T03:54:26;30.50;;;11.97;;
61911;SDS011;49973;52.084;5.412;2023-03-03T03:56:55;38.77;;;13.47;;
61911;SDS011;49973;52.084;5.412;2023-03-03T03:59:26;32.03;;;12.83;;
61911;SDS011;49973;52.084;5.412;2023-03-03T04:01:54;24.33;;;12.03;;
61911;SDS011;49973;52.084;5.412;2023-03-03T04:04:24;25.43;;;11.53;;
61911;SDS011;49973;52.084;5.412;2023-03-03T04:06:53;28.07;;;10.97;;
61911;SDS011;49973;52.084;5.412;2023-03-03T04:09:22;25.77;;;10.57;;
61911;SDS011;49973;52.084;5.412;2023-03-03T04:11:50;22.13;;;10.27;;
61911;SDS011;49973;52.084;5.412;2023-03-03T04:14:19;25.03;;;9.87;;
61911;SDS011;49973;52.084;5.412;2023-03-03T04:16:49;29.67;;;12.07;;
61911;SDS011;49973;52.084;5.412;2023-03-03T04:19:17;29.70;;;11.27;;
61911;SDS011;49973;52.084;5.412;2023-03-03T04:21:48;28.30;;;11.00;;
61911;SDS011;49973;52.084;5.412;2023-03-03T04:24:18;25.77;;;10.47;;
61911;SDS011;49973;52.084;5.412;2023-03-03T04:26:49;22.73;;;10.07;;
61911;SDS011;49973;52.084;5.412;2023-03-03T04:29:18;22.60;;;10.33;;
61911;SDS011;49973;52.084;5.412;2023-03-03T04:31:48;30.47;;;11.40;;
61911;SDS011;49973;52.084;5.412;2023-03-03T04:34:18;24.03;;;10.27;;
61911;SDS011;49973;52.084;5.412;2023-03-03T04:36:47;23.43;;;10.87;;
61911;SDS011;49973;52.084;5.412;2023-03-03T04:39:16;25.20;;;10.70;;
61911;SDS011;49973;52.084;5.412;2023-03-03T04:41:45;20.17;;;10.13;;
61911;SDS011;49973;52.084;5.412;2023-03-03T04:44:14;23.77;;;9.80;;
61911;SDS011;49973;52.084;5.412;2023-03-03T04:46:43;21.60;;;11.30;;
61911;SDS011;49973;52.084;5.412;2023-03-03T04:49:13;28.97;;;10.57;;
61911;SDS011;49973;52.084;5.412;2023-03-03T04:51:42;27.10;;;11.17;;
61911;SDS011;49973;52.084;5.412;2023-03-03T04:54:11;29.67;;;11.73;;
61911;SDS011;49973;52.084;5.412;2023-03-03T04:56:40;26.70;;;11.73;;
61911;SDS011;49973;52.084;5.412;2023-03-03T04:59:08;27.80;;;11.53;;
61911;SDS011;49973;52.084;5.412;2023-03-03T05:01:37;31.80;;;12.27;;
61911;SDS011;49973;52.084;5.412;2023-03-03T05:04:06;25.83;;;11.53;;
61911;SDS011;49973;52.084;5.412;2023-03-03T05:06:36;30.33;;;13.13;;
61911;SDS011;49973;52.084;5.412;2023-03-03T05:09:05;27.13;;;11.23;;
61911;SDS011;49973;52.084;5.412;2023-03-03T05:11:33;28.27;;;11.23;;
61911;SDS011;49973;52.084;5.412;2023-03-03T05:14:02;24.70;;;12.73;;
61911;SDS011;49973;52.084;5.412;2023-03-03T05:16:31;28.03;;;10.63;;
61911;SDS011;49973;52.084;5.412;2023-03-03T05:18:59;27.10;;;12.77;;
61911;SDS011;49973;52.084;5.412;2023-03-03T05:21:28;29.67;;;11.73;;
61911;SDS011;49973;52.084;5.412;2023-03-03T05:23:58;29.73;;;11.07;;
61911;SDS011;49973;52.084;5.412;2023-03-03T05:26:26;27.73;;;11.67;;
61911;SDS011;49973;52.084;5.412;2023-03-03T05:28:55;26.30;;;10.40;;
61911;SDS011;49973;52.084;5.412;2023-03-03T05:31:23;30.60;;;11.90;;
61911;SDS011;49973;52.084;5.412;2023-03-03T05:33:53;29.27;;;11.03;;
61911;SDS011;49973;52.084;5.412;2023-03-03T05:36:21;28.10;;;11.13;;
61911;SDS011;49973;52.084;5.412;2023-03-03T05:38:50;29.27;;;11.50;;
61911;SDS011;49973;52.084;5.412;2023-03-03T05:41:20;28.30;;;10.20;;
61911;SDS011;49973;52.084;5.412;2023-03-03T05:43:49;29.10;;;11.07;;
61911;SDS011;49973;52.084;5.412;2023-03-03T05:46:17;27.23;;;10.47;;
61911;SDS011;49973;52.084;5.412;2023-03-03T05:48:46;28.10;;;11.07;;
61911;SDS011;49973;52.084;5.412;2023-03-03T05:51:14;27.03;;;10.80;;
61911;SDS011;49973;52.084;5.412;2023-03-03T05:53:43;32.50;;;11.43;;
61911;SDS011;49973;52.084;5.412;2023-03-03T05:56:12;24.03;;;9.83;;
61911;SDS011;49973;52.084;5.412;2023-03-03T05:58:41;28.40;;;11.30;;
61911;SDS011;49973;52.084;5.412;2023-03-03T06:01:10;30.87;;;10.77;;
61911;SDS011;49973;52.084;5.412;2023-03-03T06:03:38;27.40;;;10.57;;
61911;SDS011;49973;52.084;5.412;2023-03-03T06:06:07;29.83;;;11.47;;
61911;SDS011;49973;52.084;5.412;2023-03-03T06:08:35;27.87;;;12.47;;
61911;SDS011;49973;52.084;5.412;2023-03-03T06:11:04;35.17;;;11.40;;
61911;SDS011;49973;52.084;5.412;2023-03-03T06:13:33;31.90;;;11.37;;
61911;SDS011;49973;52.084;5.412;2023-03-03T06:16:03;32.53;;;11.40;;
61911;SDS011;49973;52.084;5.412;2023-03-03T06:18:32;62.73;;;14.20;;
61911;SDS011;49973;52.084;5.412;2023-03-03T06:21:01;28.17;;;11.17;;
61911;SDS011;49973;52.084;5.412;2023-03-03T06:23:29;39.30;;;11.37;;
61911;SDS011;49973;52.084;5.412;2023-03-03T06:25:58;59.67;;;12.90;;
61911;SDS011;49973;52.084;5.412;2023-03-03T06:28:27;34.13;;;11.27;;
61911;SDS011;49973;52.084;5.412;2023-03-03T06:30:55;34.57;;;11.57;;
61911;SDS011;49973;52.084;5.412;2023-03-03T06:33:25;38.13;;;11.93;;
61911;SDS011;49973;52.084;5.412;2023-03-03T06:35:54;85.93;;;14.67;;
61911;SDS011;49973;52.084;5.412;2023-03-03T06:38:23;32.17;;;10.90;;
61911;SDS011;49973;52.084;5.412;2023-03-03T06:40:51;29.27;;;10.37;;
61911;SDS011;49973;52.084;5.412;2023-03-03T06:43:20;51.13;;;11.97;;
61911;SDS011;49973;52.084;5.412;2023-03-03T06:45:48;30.73;;;10.10;;
61911;SDS011;49973;52.084;5.412;2023-03-03T06:48:17;30.97;;;10.90;;
61911;SDS011;49973;52.084;5.412;2023-03-03T06:50:47;30.13;;;10.60;;
61911;SDS011;49973;52.084;5.412;2023-03-03T06:53:16;36.57;;;10.70;;
61911;SDS011;49973;52.084;5.412;2023-03-03T06:55:45;35.53;;;10.33;;
61911;SDS011;49973;52.084;5.412;2023-03-03T06:58:14;25.90;;;9.83;;
61911;SDS011;49973;52.084;5.412;2023-03-03T07:00:44;37.13;;;11.17;;
61911;SDS011;49973;52.084;5.412;2023-03-03T07:03:20;33.40;;;11.77;;
61911;SDS011;49973;52.084;5.412;2023-03-03T07:05:52;29.97;;;10.67;;
61911;SDS011;49973;52.084;5.412;2023-03-03T07:08:21;33.63;;;10.83;;
61911;SDS011;49973;52.084;5.412;2023-03-03T07:10:51;24.27;;;9.77;;
61911;SDS011;49973;52.084;5.412;2023-03-03T07:13:22;19.53;;;8.70;;
61911;SDS011;49973;52.084;5.412;2023-03-03T07:15:52;62.63;;;10.37;;
61911;SDS011;49973;52.084;5.412;2023-03-03T07:18:33;20.77;;;8.00;;
61911;SDS011;49973;52.084;5.412;2023-03-03T07:21:18;22.53;;;9.13;;
61911;SDS011;49973;52.084;5.412;2023-03-03T07:23:49;17.60;;;6.90;;
61911;SDS011;49973;52.084;5.412;2023-03-03T07:26:19;16.77;;;8.23;;
61911;SDS011;49973;52.084;5.412;2023-03-03T07:28:52;24.70;;;8.20;;
61911;SDS011;49973;52.084;5.412;2023-03-03T07:31:26;34.40;;;7.87;;
61911;SDS011;49973;52.084;5.412;2023-03-03T07:34:01;24.27;;;8.33;;
61911;SDS011;49973;52.084;5.412;2023-03-03T07:36:43;20.40;;;7.57;;
61911;SDS011;49973;52.084;5.412;2023-03-03T07:42:14;17.63;;;7.57;;
61911;SDS011;49973;52.084;5.412;2023-03-03T07:44:54;18.00;;;7.53;;
61911;SDS011;49973;52.084;5.412;2023-03-03T07:47:25;21.07;;;7.60;;
61911;SDS011;49973;52.084;5.412;2023-03-03T07:49:55;23.13;;;7.67;;
61911;SDS011;49973;52.084;5.412;2023-03-03T07:52:30;18.93;;;6.67;;
61911;SDS011;49973;52.084;5.412;2023-03-03T07:55:19;18.33;;;7.67;;
61911;SDS011;49973;52.084;5.412;2023-03-03T07:57:58;23.90;;;8.63;;
61911;SDS011;49973;52.084;5.412;2023-03-03T08:03:49;20.53;;;6.93;;
61911;SDS011;49973;52.084;5.412;2023-03-03T08:09:30;13.13;;;5.27;;
61911;SDS011;49973;52.084;5.412;2023-03-03T08:12:15;14.63;;;6.93;;
61911;SDS011;49973;52.084;5.412;2023-03-03T08:14:54;14.60;;;6.13;;
61911;SDS011;49973;52.084;5.412;2023-03-03T08:17:26;12.83;;;6.20;;
61911;SDS011;49973;52.084;5.412;2023-03-03T08:20:06;15.87;;;7.07;;
61911;SDS011;49973;52.084;5.412;2023-03-03T08:22:50;12.80;;;5.97;;
61911;SDS011;49973;52.084;5.412;2023-03-03T08:25:20;16.17;;;5.23;;
61911;SDS011;49973;52.084;5.412;2023-03-03T08:27:49;12.27;;;5.37;;
61911;SDS011;49973;52.084;5.412;2023-03-03T08:30:17;12.30;;;6.00;;
61911;SDS011;49973;52.084;5.412;2023-03-03T08:32:46;12.90;;;5.80;;
61911;SDS011;49973;52.084;5.412;2023-03-03T08:35:15;18.27;;;5.50;;
61911;SDS011;49973;52.084;5.412;2023-03-03T08:37:43;16.23;;;5.50;;
61911;SDS011;49973;52.084;5.412;2023-03-03T08:40:12;12.47;;;5.80;;
61911;SDS011;49973;52.084;5.412;2023-03-03T08:42:42;14.40;;;5.33;;
61911;SDS011;49973;52.084;5.412;2023-03-03T08:45:10;13.77;;;5.60;;
61911;SDS011;49973;52.084;5.412;2023-03-03T08:47:39;13.47;;;5.77;;
61911;SDS011;49973;52.084;5.412;2023-03-03T08:50:08;7.80;;;4.87;;
61911;SDS011;49973;52.084;5.412;2023-03-03T08:52:37;13.70;;;5.60;;
61911;SDS011;49973;52.084;5.412;2023-03-03T08:55:06;13.17;;;5.40;;
61911;SDS011;49973;52.084;5.412;2023-03-03T08:57:35;10.80;;;4.47;;
61911;SDS011;49973;52.084;5.412;2023-03-03T09:00:07;13.43;;;5.47;;
61911;SDS011;49973;52.084;5.412;2023-03-03T09:02:37;12.20;;;4.83;;
61911;SDS011;49973;52.084;5.412;2023-03-03T09:05:06;9.77;;;5.13;;
61911;SDS011;49973;52.084;5.412;2023-03-03T09:07:35;11.10;;;4.80;;
61911;SDS011;49973;52.084;5.412;2023-03-03T09:10:04;10.73;;;4.93;;
61911;SDS011;49973;52.084;5.412;2023-03-03T09:12:35;15.17;;;5.13;;
61911;SDS011;49973;52.084;5.412;2023-03-03T09:17:51;8.80;;;4.03;;
61911;SDS011;49973;52.084;5.412;2023-03-03T09:20:26;7.43;;;4.23;;
61911;SDS011;49973;52.084;5.412;2023-03-03T09:23:16;8.80;;;3.83;;
61911;SDS011;49973;52.084;5.412;2023-03-03T09:28:54;8.30;;;4.37;;
61911;SDS011;49973;52.084;5.412;2023-03-03T09:31:30;7.23;;;3.40;;
61911;SDS011;49973;52.084;5.412;2023-03-03T09:34:11;17.23;;;4.53;;
61911;SDS011;49973;52.084;5.412;2023-03-03T09:36:44;7.57;;;3.60;;
61911;SDS011;49973;52.084;5.412;2023-03-03T09:39:15;9.63;;;3.93;;
61911;SDS011;49973;52.084;5.412;2023-03-03T09:41:52;6.70;;;2.93;;
61911;SDS011;49973;52.084;5.412;2023-03-03T09:44:33;7.30;;;3.53;;
61911;SDS011;49973;52.084;5.412;2023-03-03T09:47:26;7.60;;;3.47;;
61911;SDS011;49973;52.084;5.412;2023-03-03T09:50:04;9.80;;;3.80;;
61911;SDS011;49973;52.084;5.412;2023-03-03T09:52:45;8.63;;;4.03;;
61911;SDS011;49973;52.084;5.412;2023-03-03T09:55:26;6.20;;;3.50;;
61911;SDS011;49973;52.084;5.412;2023-03-03T09:58:13;6.27;;;3.47;;
61911;SDS011;49973;52.084;5.412;2023-03-03T10:01:05;5.47;;;3.23;;
61911;SDS011;49973;52.084;5.412;2023-03-03T10:03:47;7.73;;;3.77;;
61911;SDS011;49973;52.084;5.412;2023-03-03T10:06:32;8.20;;;3.90;;
61911;SDS011;49973;52.084;5.412;2023-03-03T10:09:14;6.67;;;3.33;;
61911;SDS011;49973;52.084;5.412;2023-03-03T10:12:04;7.73;;;4.10;;
61911;SDS011;49973;52.084;5.412;2023-03-03T10:14:49;6.60;;;3.43;;
61911;SDS011;49973;52.084;5.412;2023-03-03T10:17:43;4.47;;;2.73;;
61911;SDS011;49973;52.084;5.412;2023-03-03T10:20:22;7.10;;;4.07;;
61911;SDS011;49973;52.084;5.412;2023-03-03T10:23:19;10.03;;;3.70;;
61911;SDS011;49973;52.084;5.412;2023-03-03T10:25:59;10.20;;;4.27;;
61911;SDS011;49973;52.084;5.412;2023-03-03T10:28:53;5.50;;;3.40;;
61911;SDS011;49973;52.084;5.412;2023-03-03T10:31:38;10.37;;;3.73;;
61911;SDS011;49973;52.084;5.412;2023-03-03T10:34:26;7.83;;;5.10;;
61911;SDS011;49973;52.084;5.412;2023-03-03T10:37:17;9.23;;;4.10;;
61911;SDS011;49973;52.084;5.412;2023-03-03T10:39:54;6.77;;;3.57;;
61911;SDS011;49973;52.084;5.412;2023-03-03T10:42:40;12.50;;;3.90;;
61911;SDS011;49973;52.084;5.412;2023-03-03T10:45:33;10.40;;;3.37;;
61911;SDS011;49973;52.084;5.412;2023-03-03T10:48:37;9.23;;;3.77;;
61911;SDS011;49973;52.084;5.412;2023-03-03T10:51:20;10.53;;;3.90;;
61911;SDS011;49973;52.084;5.412;2023-03-03T10:54:02;7.83;;;3.23;;
61911;SDS011;49973;52.084;5.412;2023-03-03T10:56:42;4.97;;;3.13;;
61911;SDS011;49973;52.084;5.412;2023-03-03T10:59:25;5.73;;;3.30;;
61911;SDS011;49973;52.084;5.412;2023-03-03T11:02:05;7.67;;;2.73;;
61911;SDS011;49973;52.084;5.412;2023-03-03T11:04:42;12.67;;;3.67;;
61911;SDS011;49973;52.084;5.412;2023-03-03T11:07:26;4.33;;;2.73;;
61911;SDS011;49973;52.084;5.412;2023-03-03T11:10:06;9.23;;;3.50;;
61911;SDS011;49973;52.084;5.412;2023-03-03T11:12:48;6.70;;;3.27;;
61911;SDS011;49973;52.084;5.412;2023-03-03T11:15:35;6.00;;;3.10;;
61911;SDS011;49973;52.084;5.412;2023-03-03T11:18:17;13.00;;;3.67;;
61911;SDS011;49973;52.084;5.412;2023-03-03T11:20:54;8.47;;;3.03;;
61911;SDS011;49973;52.084;5.412;2023-03-03T11:23:34;7.47;;;3.20;;
61911;SDS011;49973;52.084;5.412;2023-03-03T11:26:23;7.17;;;2.73;;
61911;SDS011;49973;52.084;5.412;2023-03-03T11:29:05;7.53;;;3.00;;
61911;SDS011;49973;52.084;5.412;2023-03-03T11:31:48;5.27;;;2.70;;
61911;SDS011;49973;52.084;5.412;2023-03-03T11:34:28;4.57;;;2.43;;
61911;SDS011;49973;52.084;5.412;2023-03-03T11:37:15;6.60;;;2.37;;
61911;SDS011;49973;52.084;5.412;2023-03-03T11:39:46;3.93;;;2.57;;
61911;SDS011;49973;52.084;5.412;2023-03-03T11:42:21;5.70;;;2.30;;
61911;SDS011;49973;52.084;5.412;2023-03-03T11:44:54;13.70;;;3.00;;
61911;SDS011;49973;52.084;5.412;2023-03-03T11:47:28;2.97;;;2.00;;
61911;SDS011;49973;52.084;5.412;2023-03-03T11:50:02;6.90;;;2.70;;
61911;SDS011;49973;52.084;5.412;2023-03-03T11:52:37;5.10;;;2.73;;
61911;SDS011;49973;52.084;5.412;2023-03-03T11:55:11;9.50;;;2.63;;
61911;SDS011;49973;52.084;5.412;2023-03-03T11:57:43;3.20;;;1.70;;
61911;SDS011;49973;52.084;5.412;2023-03-03T12:00:18;2.77;;;1.53;;
61911;SDS011;49973;52.084;5.412;2023-03-03T12:02:55;4.43;;;1.83;;
61911;SDS011;49973;52.084;5.412;2023-03-03T12:05:41;3.27;;;1.67;;
61911;SDS011;49973;52.084;5.412;2023-03-03T12:08:21;3.17;;;1.50;;
61911;SDS011;49973;52.084;5.412;2023-03-03T12:11:06;3.77;;;1.40;;
61911;SDS011;49973;52.084;5.412;2023-03-03T12:13:41;1.47;;;0.83;;
61911;SDS011;49973;52.084;5.412;2023-03-03T12:16:21;4.50;;;1.67;;
61911;SDS011;49973;52.084;5.412;2023-03-03T12:19:03;3.60;;;1.20;;
61911;SDS011;49973;52.084;5.412;2023-03-03T12:21:49;2.47;;;1.30;;
61911;SDS011;49973;52.084;5.412;2023-03-03T12:24:34;2.87;;;1.63;;
61911;SDS011;49973;52.084;5.412;2023-03-03T12:27:28;2.20;;;1.10;;
61911;SDS011;49973;52.084;5.412;2023-03-03T12:30:04;3.03;;;0.83;;
61911;SDS011;49973;52.084;5.412;2023-03-03T12:32:51;0.93;;;0.60;;
61911;SDS011;49973;52.084;5.412;2023-03-03T12:35:30;1.47;;;0.90;;
61911;SDS011;49973;52.084;5.412;2023-03-03T12:38:07;1.83;;;1.23;;
61911;SDS011;49973;52.084;5.412;2023-03-03T12:40:45;1.27;;;0.83;;
61911;SDS011;49973;52.084;5.412;2023-03-03T12:43:24;2.27;;;1.33;;
61911;SDS011;49973;52.084;5.412;2023-03-03T12:46:06;0.87;;;0.70;;
61911;SDS011;49973;52.084;5.412;2023-03-03T12:48:44;1.17;;;1.00;;
61911;SDS011;49973;52.084;5.412;2023-03-03T12:51:17;3.07;;;1.33;;
61911;SDS011;49973;52.084;5.412;2023-03-03T12:57:05;3.80;;;0.67;;
61911;SDS011;49973;52.084;5.412;2023-03-03T12:59:42;0.63;;;0.60;;
61911;SDS011;49973;52.084;5.412;2023-03-03T13:02:24;1.80;;;0.70;;
61911;SDS011;49973;52.084;5.412;2023-03-03T13:05:08;1.20;;;0.73;;
61911;SDS011;49973;52.084;5.412;2023-03-03T13:07:47;0.90;;;0.60;;
61911;SDS011;49973;52.084;5.412;2023-03-03T13:10:25;4.23;;;1.10;;
61911;SDS011;49973;52.084;5.412;2023-03-03T13:13:00;10.07;;;1.10;;
61911;SDS011;49973;52.084;5.412;2023-03-03T13:15:36;2.70;;;0.90;;
61911;SDS011;49973;52.084;5.412;2023-03-03T13:18:27;2.47;;;1.03;;
61911;SDS011;49973;52.084;5.412;2023-03-03T13:21:02;2.40;;;1.40;;
61911;SDS011;49973;52.084;5.412;2023-03-03T13:23:39;2.90;;;1.47;;
61911;SDS011;49973;52.084;5.412;2023-03-03T13:26:16;5.97;;;2.27;;
61911;SDS011;49973;52.084;5.412;2023-03-03T13:28:54;4.53;;;1.43;;
61911;SDS011;49973;52.084;5.412;2023-03-03T13:31:28;2.63;;;1.30;;
61911;SDS011;49973;52.084;5.412;2023-03-03T13:34:01;2.47;;;1.50;;
61911;SDS011;49973;52.084;5.412;2023-03-03T13:36:33;7.03;;;1.80;;
61911;SDS011;49973;52.084;5.412;2023-03-03T13:39:11;2.53;;;1.33;;
61911;SDS011;49973;52.084;5.412;2023-03-03T13:41:47;2.27;;;1.00;;
61911;SDS011;49973;52.084;5.412;2023-03-03T13:44:19;1.90;;;1.23;;
61911;SDS011;49973;52.084;5.412;2023-03-03T13:46:55;2.93;;;1.43;;
61911;SDS011;49973;52.084;5.412;2023-03-03T13:49:42;3.23;;;1.00;;
61911;SDS011;49973;52.084;5.412;2023-03-03T13:52:22;1.13;;;1.03;;
61911;SDS011;49973;52.084;5.412;2023-03-03T13:55:00;1.73;;;1.00;;
61911;SDS011;49973;52.084;5.412;2023-03-03T13:57:38;1.60;;;1.00;;
61911;SDS011;49973;52.084;5.412;2023-03-03T14:00:15;2.10;;;0.90;;
61911;SDS011;49973;52.084;5.412;2023-03-03T14:02:56;1.80;;;1.37;;
61911;SDS011;49973;52.084;5.412;2023-03-03T14:05:37;2.50;;;1.30;;
61911;SDS011;49973;52.084;5.412;2023-03-03T14:08:12;7.40;;;1.60;;
61911;SDS011;49973;52.084;5.412;2023-03-03T14:10:48;3.47;;;1.47;;
61911;SDS011;49973;52.084;5.412;2023-03-03T14:13:27;2.30;;;1.20;;
61911;SDS011;49973;52.084;5.412;2023-03-03T14:16:01;3.30;;;1.37;;
61911;SDS011;49973;52.084;5.412;2023-03-03T14:18:32;4.17;;;1.50;;
61911;SDS011;49973;52.084;5.412;2023-03-03T14:21:08;2.63;;;1.77;;
61911;SDS011;49973;52.084;5.412;2023-03-03T14:23:46;6.80;;;1.60;;
61911;SDS011;49973;52.084;5.412;2023-03-03T14:26:18;11.80;;;1.20;;
61911;SDS011;49973;52.084;5.412;2023-03-03T14:28:47;1.23;;;1.13;;
61911;SDS011;49973;52.084;5.412;2023-03-03T14:31:19;3.27;;;0.90;;
61911;SDS011;49973;52.084;5.412;2023-03-03T14:33:56;4.60;;;1.23;;
61911;SDS011;49973;52.084;5.412;2023-03-03T14:36:30;3.33;;;1.37;;
61911;SDS011;49973;52.084;5.412;2023-03-03T14:39:00;0.70;;;0.70;;
61911;SDS011;49973;52.084;5.412;2023-03-03T14:41:34;11.13;;;1.33;;
61911;SDS011;49973;52.084;5.412;2023-03-03T14:49:49;4.30;;;0.80;;
61911;SDS011;49973;52.084;5.412;2023-03-03T14:52:21;1.17;;;0.97;;
61911;SDS011;49973;52.084;5.412;2023-03-03T14:54:52;2.77;;;0.90;;
61911;SDS011;49973;52.084;5.412;2023-03-03T14:57:22;2.97;;;1.00;;
61911;SDS011;49973;52.084;5.412;2023-03-03T15:00:28;1.80;;;1.07;;
61911;SDS011;49973;52.084;5.412;2023-03-03T15:03:04;3.07;;;0.97;;
61911;SDS011;49973;52.084;5.412;2023-03-03T15:05:48;2.00;;;1.00;;
61911;SDS011;49973;52.084;5.412;2023-03-03T15:08:23;0.87;;;0.80;;
61911;SDS011;49973;52.084;5.412;2023-03-03T15:11:11;2.67;;;1.10;;
61911;SDS011;49973;52.084;5.412;2023-03-03T15:14:02;7.43;;;2.00;;
61911;SDS011;49973;52.084;5.412;2023-03-03T15:16:38;1.97;;;0.80;;
61911;SDS011;49973;52.084;5.412;2023-03-03T15:19:16;1.07;;;0.93;;
61911;SDS011;49973;52.084;5.412;2023-03-03T15:22:11;7.73;;;1.60;;
61911;SDS011;49973;52.084;5.412;2023-03-03T15:24:52;1.40;;;0.93;;
61911;SDS011;49973;52.084;5.412;2023-03-03T15:27:28;1.73;;;1.10;;
61911;SDS011;49973;52.084;5.412;2023-03-03T15:30:09;0.80;;;0.80;;
61911;SDS011;49973;52.084;5.412;2023-03-03T15:32:48;1.00;;;0.90;;
61911;SDS011;49973;52.084;5.412;2023-03-03T15:35:30;1.37;;;1.07;;
61911;SDS011;49973;52.084;5.412;2023-03-03T15:38:09;1.50;;;1.17;;
61911;SDS011;49973;52.084;5.412;2023-03-03T15:40:47;2.30;;;1.33;;